CheckWX is a tool to help pilots better visualize weather data.  It is not intended as a substitute for an official pre-flight weather briefing.

15:36:37 UTC

KOAK METAR
Metropolitan Oakland International Airport
Oakland, California, USA
Current

44 mins ago

KOAK 051453Z 15012KT 4SM -RA BR BKN008 BKN012 OVC033 13/11 A2962 RMK AO2 RAB45 SLP031 P0002 60002 T01280106 56008
Observed
Apr-5 @ 14:53 UTC
Wind
  • 150° at 12 KTS
Visibility
Flight Rules
IFR
Conditions
Light Rain, Mist
Cloud Levels
  • Broken at 800' AGL
  • Broken at 1,200' AGL
  • Overcast at 3,300' AGL
Temperature
13°C / 55°F
Dewpoint
11°C / 52°F
Humidity
88%
Altimeter
29.62" Hg
Pressure
1003.02 hPa
Current Rain
0.02"
Previous

51 mins ago

KOAK 051446Z 14012KT 4SM -RA BR BKN010 BKN024 OVC033 13/11 A2962 RMK AO2 RAB45 CIG 008V015 P0000 T01280106
Observed
Apr-5 @ 14:46 UTC
Wind
  • 140° at 12 KTS
Visibility
Flight Rules
MVFR
Conditions
Light Rain, Mist
Cloud Levels
  • Broken at 1,000' AGL
  • Broken at 2,400' AGL
  • Overcast at 3,300' AGL
Temperature
13°C / 55°F
Dewpoint
11°C / 52°F
Humidity
88%
Altimeter
29.62" Hg
Pressure
1003.02 hPa
Current Rain
0.01"
Previous

1 hour ago

KOAK 051425Z 15015KT 10SM FEW010 BKN026 OVC039 13/11 A2962 RMK AO2 T01330106
Observed
Apr-5 @ 14:25 UTC
Wind
  • 150° at 15 KTS
Visibility
Flight Rules
MVFR
Cloud Levels
  • Few at 1,000' AGL
  • Broken at 2,600' AGL
  • Overcast at 3,900' AGL
Temperature
13°C / 55°F
Dewpoint
11°C / 52°F
Humidity
88%
Altimeter
29.62" Hg
Pressure
1003.02 hPa